sensor_id;sensor_type;location;lat;lon;timestamp;temperature;humidity
30063;DHT22;16889;67.864;24.990;2024-01-07T00:04:28;-22.00;99.90
30063;DHT22;16889;67.864;24.990;2024-01-07T00:09:15;-21.90;99.90
30063;DHT22;16889;67.864;24.990;2024-01-07T00:14:01;-21.90;99.90
30063;DHT22;16889;67.864;24.990;2024-01-07T00:18:47;-21.70;99.90
30063;DHT22;16889;67.864;24.990;2024-01-07T00:23:33;-21.50;99.90
30063;DHT22;16889;67.864;24.990;2024-01-07T00:28:19;-21.40;99.90
30063;DHT22;16889;67.864;24.990;2024-01-07T00:33:05;-21.30;99.90
30063;DHT22;16889;67.864;24.990;2024-01-07T00:37:51;-21.00;99.90
30063;DHT22;16889;67.864;24.990;2024-01-07T00:42:37;-21.00;99.90
30063;DHT22;16889;67.864;24.990;2024-01-07T00:47:22;-21.00;99.90
30063;DHT22;16889;67.864;24.990;2024-01-07T00:52:08;-20.90;99.90
30063;DHT22;16889;67.864;24.990;2024-01-07T00:56:54;-20.80;99.90
30063;DHT22;16889;67.864;24.990;2024-01-07T01:01:40;-20.60;99.90
30063;DHT22;16889;67.864;24.990;2024-01-07T01:06:26;-20.40;99.90
30063;DHT22;16889;67.864;24.990;2024-01-07T01:11:12;-20.50;99.90
30063;DHT22;16889;67.864;24.990;2024-01-07T01:15:58;-20.40;99.90
30063;DHT22;16889;67.864;24.990;2024-01-07T01:20:44;-20.30;99.90
30063;DHT22;16889;67.864;24.990;2024-01-07T01:25:30;-20.30;99.90
30063;DHT22;16889;67.864;24.990;2024-01-07T01:30:16;-20.30;99.90
30063;DHT22;16889;67.864;24.990;2024-01-07T01:35:02;-20.20;99.90
30063;DHT22;16889;67.864;24.990;2024-01-07T01:39:48;-20.10;99.90
30063;DHT22;16889;67.864;24.990;2024-01-07T01:44:34;-20.00;99.90
30063;DHT22;16889;67.864;24.990;2024-01-07T01:49:20;-20.00;99.90
30063;DHT22;16889;67.864;24.990;2024-01-07T01:54:07;-20.10;99.90
30063;DHT22;16889;67.864;24.990;2024-01-07T01:58:53;-20.20;99.90
30063;DHT22;16889;67.864;24.990;2024-01-07T02:03:41;-20.20;99.90
30063;DHT22;16889;67.864;24.990;2024-01-07T02:08:27;-20.20;99.90
30063;DHT22;16889;67.864;24.990;2024-01-07T02:13:13;-20.50;99.90
30063;DHT22;16889;67.864;24.990;2024-01-07T02:17:59;-20.50;99.90
30063;DHT22;16889;67.864;24.990;2024-01-07T02:22:44;-20.30;99.90
30063;DHT22;16889;67.864;24.990;2024-01-07T02:27:30;-20.30;99.90
30063;DHT22;16889;67.864;24.990;2024-01-07T02:32:16;-20.40;99.90
30063;DHT22;16889;67.864;24.990;2024-01-07T02:37:02;-20.30;99.90
30063;DHT22;16889;67.864;24.990;2024-01-07T02:41:50;-20.30;99.90
30063;DHT22;16889;67.864;24.990;2024-01-07T02:46:36;-20.30;99.90
30063;DHT22;16889;67.864;24.990;2024-01-07T02:51:21;-20.20;99.90
30063;DHT22;16889;67.864;24.990;2024-01-07T02:56:07;-20.30;99.90
30063;DHT22;16889;67.864;24.990;2024-01-07T03:00:54;-20.10;99.90
30063;DHT22;16889;67.864;24.990;2024-01-07T03:05:40;-20.10;99.90
30063;DHT22;16889;67.864;24.990;2024-01-07T03:10:26;-20.00;99.90
30063;DHT22;16889;67.864;24.990;2024-01-07T03:15:12;-19.90;99.90
30063;DHT22;16889;67.864;24.990;2024-01-07T03:19:58;-19.90;99.90
30063;DHT22;16889;67.864;24.990;2024-01-07T03:24:44;-19.90;99.90
30063;DHT22;16889;67.864;24.990;2024-01-07T03:29:30;-19.70;99.90
30063;DHT22;16889;67.864;24.990;2024-01-07T03:34:16;-19.70;99.90
30063;DHT22;16889;67.864;24.990;2024-01-07T03:39:01;-19.80;99.90
30063;DHT22;16889;67.864;24.990;2024-01-07T03:43:48;-19.90;99.90
30063;DHT22;16889;67.864;24.990;2024-01-07T03:48:34;-19.80;99.90
30063;DHT22;16889;67.864;24.990;2024-01-07T03:53:20;-19.70;99.90
30063;DHT22;16889;67.864;24.990;2024-01-07T03:58:06;-19.70;99.90
30063;DHT22;16889;67.864;24.990;2024-01-07T04:02:53;-19.60;99.90
30063;DHT22;16889;67.864;24.990;2024-01-07T04:07:38;-19.50;99.90
30063;DHT22;16889;67.864;24.990;2024-01-07T04:12:24;-19.50;99.90
30063;DHT22;16889;67.864;24.990;2024-01-07T04:17:10;-19.50;99.90
30063;DHT22;16889;67.864;24.990;2024-01-07T04:21:56;-19.40;99.90
30063;DHT22;16889;67.864;24.990;2024-01-07T04:26:42;-19.30;99.90
30063;DHT22;16889;67.864;24.990;2024-01-07T04:31:28;-19.20;99.90
30063;DHT22;16889;67.864;24.990;2024-01-07T04:36:14;-19.10;99.90
30063;DHT22;16889;67.864;24.990;2024-01-07T04:41:00;-19.10;99.90
30063;DHT22;16889;67.864;24.990;2024-01-07T04:45:46;-19.10;99.90
30063;DHT22;16889;67.864;24.990;2024-01-07T04:50:32;-19.00;99.90
30063;DHT22;16889;67.864;24.990;2024-01-07T04:55:18;-19.00;99.90
30063;DHT22;16889;67.864;24.990;2024-01-07T05:00:05;-19.00;99.90
30063;DHT22;16889;67.864;24.990;2024-01-07T05:04:51;-18.90;99.90
30063;DHT22;16889;67.864;24.990;2024-01-07T05:09:37;-18.90;99.90
30063;DHT22;16889;67.864;24.990;2024-01-07T05:14:23;-19.00;99.90
30063;DHT22;16889;67.864;24.990;2024-01-07T05:19:08;-18.90;99.90
30063;DHT22;16889;67.864;24.990;2024-01-07T05:23:54;-19.10;99.90
30063;DHT22;16889;67.864;24.990;2024-01-07T05:28:40;-18.90;99.90
30063;DHT22;16889;67.864;24.990;2024-01-07T05:33:26;-18.90;99.90
30063;DHT22;16889;67.864;24.990;2024-01-07T05:38:12;-19.00;99.90
30063;DHT22;16889;67.864;24.990;2024-01-07T05:42:58;-18.90;99.90
30063;DHT22;16889;67.864;24.990;2024-01-07T05:47:44;-18.90;99.90
30063;DHT22;16889;67.864;24.990;2024-01-07T05:52:30;-18.80;99.90
30063;DHT22;16889;67.864;24.990;2024-01-07T05:57:16;-18.70;99.90
30063;DHT22;16889;67.864;24.990;2024-01-07T06:02:02;-18.70;99.90
30063;DHT22;16889;67.864;24.990;2024-01-07T06:06:48;-18.70;99.90
30063;DHT22;16889;67.864;24.990;2024-01-07T06:11:34;-18.60;99.90
30063;DHT22;16889;67.864;24.990;2024-01-07T06:16:20;-18.50;99.90
30063;DHT22;16889;67.864;24.990;2024-01-07T06:21:06;-18.40;99.90
30063;DHT22;16889;67.864;24.990;2024-01-07T06:25:52;-18.40;99.90
30063;DHT22;16889;67.864;24.990;2024-01-07T06:30:38;-18.40;99.90
30063;DHT22;16889;67.864;24.990;2024-01-07T06:35:24;-18.20;99.90
30063;DHT22;16889;67.864;24.990;2024-01-07T06:40:10;-18.00;99.90
30063;DHT22;16889;67.864;24.990;2024-01-07T06:44:57;-18.00;99.90
30063;DHT22;16889;67.864;24.990;2024-01-07T06:49:43;-17.90;99.90
30063;DHT22;16889;67.864;24.990;2024-01-07T06:54:28;-17.70;99.90
30063;DHT22;16889;67.864;24.990;2024-01-07T06:59:14;-17.80;99.90
30063;DHT22;16889;67.864;24.990;2024-01-07T07:04:00;-17.70;99.90
30063;DHT22;16889;67.864;24.990;2024-01-07T07:08:46;-17.50;99.90
30063;DHT22;16889;67.864;24.990;2024-01-07T07:13:32;-17.50;99.90
30063;DHT22;16889;67.864;24.990;2024-01-07T07:18:18;-17.40;99.90
30063;DHT22;16889;67.864;24.990;2024-01-07T07:23:04;-17.20;99.90
30063;DHT22;16889;67.864;24.990;2024-01-07T07:27:50;-17.20;99.90
30063;DHT22;16889;67.864;24.990;2024-01-07T07:32:39;-17.10;99.90
30063;DHT22;16889;67.864;24.990;2024-01-07T07:37:25;-16.90;99.90
30063;DHT22;16889;67.864;24.990;2024-01-07T07:42:11;-16.80;99.90
30063;DHT22;16889;67.864;24.990;2024-01-07T07:46:57;-16.70;99.90
30063;DHT22;16889;67.864;24.990;2024-01-07T07:51:43;-16.70;99.90
30063;DHT22;16889;67.864;24.990;2024-01-07T07:56:29;-17.00;99.90
30063;DHT22;16889;67.864;24.990;2024-01-07T08:01:17;-17.10;99.90
30063;DHT22;16889;67.864;24.990;2024-01-07T08:06:04;-16.80;99.90
30063;DHT22;16889;67.864;24.990;2024-01-07T08:10:50;-16.60;99.90
30063;DHT22;16889;67.864;24.990;2024-01-07T08:15:36;-16.40;99.90
30063;DHT22;16889;67.864;24.990;2024-01-07T08:20:23;-16.20;99.90
30063;DHT22;16889;67.864;24.990;2024-01-07T08:25:09;-16.30;99.90
30063;DHT22;16889;67.864;24.990;2024-01-07T08:29:55;-16.20;99.90
30063;DHT22;16889;67.864;24.990;2024-01-07T08:34:41;-16.10;99.90
30063;DHT22;16889;67.864;24.990;2024-01-07T08:39:27;-15.90;99.90
30063;DHT22;16889;67.864;24.990;2024-01-07T08:44:14;-15.80;99.90
30063;DHT22;16889;67.864;24.990;2024-01-07T08:49:01;-15.90;99.90
30063;DHT22;16889;67.864;24.990;2024-01-07T08:53:47;-15.90;99.90
30063;DHT22;16889;67.864;24.990;2024-01-07T08:58:33;-15.80;99.90
30063;DHT22;16889;67.864;24.990;2024-01-07T09:03:19;-15.80;99.90
30063;DHT22;16889;67.864;24.990;2024-01-07T09:08:05;-15.90;99.90
30063;DHT22;16889;67.864;24.990;2024-01-07T09:12:52;-15.80;99.90
30063;DHT22;16889;67.864;24.990;2024-01-07T09:17:39;-15.60;99.90
30063;DHT22;16889;67.864;24.990;2024-01-07T09:22:25;-15.60;99.90
30063;DHT22;16889;67.864;24.990;2024-01-07T09:27:11;-15.80;99.90
30063;DHT22;16889;67.864;24.990;2024-01-07T09:31:57;-15.80;99.90
30063;DHT22;16889;67.864;24.990;2024-01-07T09:36:43;-15.70;99.90
30063;DHT22;16889;67.864;24.990;2024-01-07T09:41:29;-15.60;99.90
30063;DHT22;16889;67.864;24.990;2024-01-07T09:46:15;-15.40;99.90
30063;DHT22;16889;67.864;24.990;2024-01-07T09:51:01;-15.30;99.90
30063;DHT22;16889;67.864;24.990;2024-01-07T10:00:43;-15.40;99.90
30063;DHT22;16889;67.864;24.990;2024-01-07T10:05:29;-15.50;99.90
30063;DHT22;16889;67.864;24.990;2024-01-07T10:10:15;-15.50;99.90
30063;DHT22;16889;67.864;24.990;2024-01-07T10:15:02;-15.70;99.90
30063;DHT22;16889;67.864;24.990;2024-01-07T10:19:48;-15.60;99.90
30063;DHT22;16889;67.864;24.990;2024-01-07T10:24:40;-15.70;99.90
30063;DHT22;16889;67.864;24.990;2024-01-07T10:29:27;-15.70;99.90
30063;DHT22;16889;67.864;24.990;2024-01-07T10:34:13;-15.70;99.90
30063;DHT22;16889;67.864;24.990;2024-01-07T10:39:00;-15.60;99.90
30063;DHT22;16889;67.864;24.990;2024-01-07T10:43:47;-15.60;99.90
30063;DHT22;16889;67.864;24.990;2024-01-07T10:48:37;-15.80;99.90
30063;DHT22;16889;67.864;24.990;2024-01-07T10:53:23;-15.80;99.90
30063;DHT22;16889;67.864;24.990;2024-01-07T10:58:11;-15.70;99.90
30063;DHT22;16889;67.864;24.990;2024-01-07T11:03:11;-15.60;99.90
30063;DHT22;16889;67.864;24.990;2024-01-07T11:08:06;-15.50;99.90
30063;DHT22;16889;67.864;24.990;2024-01-07T11:12:54;-15.50;99.90
30063;DHT22;16889;67.864;24.990;2024-01-07T11:17:41;-15.60;99.90
30063;DHT22;16889;67.864;24.990;2024-01-07T11:22:32;-15.40;99.90
30063;DHT22;16889;67.864;24.990;2024-01-07T11:27:18;-15.20;99.90
30063;DHT22;16889;67.864;24.990;2024-01-07T11:32:06;-15.20;99.90
30063;DHT22;16889;67.864;24.990;2024-01-07T11:36:52;-15.10;99.90
30063;DHT22;16889;67.864;24.990;2024-01-07T11:41:38;-15.00;99.90
30063;DHT22;16889;67.864;24.990;2024-01-07T11:46:29;-14.90;99.90
30063;DHT22;16889;67.864;24.990;2024-01-07T11:51:18;-14.80;99.90
30063;DHT22;16889;67.864;24.990;2024-01-07T11:56:05;-14.80;99.90
30063;DHT22;16889;67.864;24.990;2024-01-07T12:00:51;-14.90;99.90
30063;DHT22;16889;67.864;24.990;2024-01-07T12:05:36;-14.70;99.90
30063;DHT22;16889;67.864;24.990;2024-01-07T12:10:23;-14.80;99.90
30063;DHT22;16889;67.864;24.990;2024-01-07T12:15:10;-14.70;99.90
30063;DHT22;16889;67.864;24.990;2024-01-07T12:19:57;-14.60;99.90
30063;DHT22;16889;67.864;24.990;2024-01-07T12:24:43;-14.70;99.90
30063;DHT22;16889;67.864;24.990;2024-01-07T12:29:29;-14.70;99.90
30063;DHT22;16889;67.864;24.990;2024-01-07T12:34:15;-14.80;99.90
30063;DHT22;16889;67.864;24.990;2024-01-07T12:39:01;-14.70;99.90
30063;DHT22;16889;67.864;24.990;2024-01-07T12:43:48;-14.80;99.90
30063;DHT22;16889;67.864;24.990;2024-01-07T12:48:34;-14.60;99.90
30063;DHT22;16889;67.864;24.990;2024-01-07T12:53:19;-14.50;99.90
30063;DHT22;16889;67.864;24.990;2024-01-07T12:58:05;-14.50;99.90
30063;DHT22;16889;67.864;24.990;2024-01-07T13:02:51;-14.30;99.90
30063;DHT22;16889;67.864;24.990;2024-01-07T13:07:38;-14.20;99.90
30063;DHT22;16889;67.864;24.990;2024-01-07T13:12:25;-14.20;99.90
30063;DHT22;16889;67.864;24.990;2024-01-07T13:17:12;-14.10;99.90
30063;DHT22;16889;67.864;24.990;2024-01-07T13:21:58;-13.80;99.90
30063;DHT22;16889;67.864;24.990;2024-01-07T13:26:44;-13.50;99.90
30063;DHT22;16889;67.864;24.990;2024-01-07T13:31:30;-13.80;99.90
30063;DHT22;16889;67.864;24.990;2024-01-07T13:36:16;-13.70;99.90
30063;DHT22;16889;67.864;24.990;2024-01-07T13:41:02;-13.60;99.90
30063;DHT22;16889;67.864;24.990;2024-01-07T13:45:50;-13.40;99.90
30063;DHT22;16889;67.864;24.990;2024-01-07T13:50:37;-13.20;99.90
30063;DHT22;16889;67.864;24.990;2024-01-07T13:55:23;-13.30;99.90
30063;DHT22;16889;67.864;24.990;2024-01-07T14:00:09;-13.20;99.90
30063;DHT22;16889;67.864;24.990;2024-01-07T14:04:55;-13.10;99.90
30063;DHT22;16889;67.864;24.990;2024-01-07T14:09:41;-13.00;99.90
30063;DHT22;16889;67.864;24.990;2024-01-07T14:14:28;-12.80;99.90
30063;DHT22;16889;67.864;24.990;2024-01-07T14:19:14;-12.80;99.90
30063;DHT22;16889;67.864;24.990;2024-01-07T14:24:01;-12.70;99.90
30063;DHT22;16889;67.864;24.990;2024-01-07T14:28:49;-12.50;99.90
30063;DHT22;16889;67.864;24.990;2024-01-07T14:33:36;-12.40;99.90
30063;DHT22;16889;67.864;24.990;2024-01-07T14:38:22;-12.40;99.90
30063;DHT22;16889;67.864;24.990;2024-01-07T14:43:08;-12.30;99.90
30063;DHT22;16889;67.864;24.990;2024-01-07T14:47:54;-12.20;99.90
30063;DHT22;16889;67.864;24.990;2024-01-07T14:52:40;-12.00;99.90
30063;DHT22;16889;67.864;24.990;2024-01-07T14:57:26;-11.90;99.90
30063;DHT22;16889;67.864;24.990;2024-01-07T15:02:12;-11.70;99.90
30063;DHT22;16889;67.864;24.990;2024-01-07T15:06:58;-11.60;99.90
30063;DHT22;16889;67.864;24.990;2024-01-07T15:11:44;-11.50;99.90
30063;DHT22;16889;67.864;24.990;2024-01-07T15:16:36;-11.50;99.90
30063;DHT22;16889;67.864;24.990;2024-01-07T15:21:22;-11.40;99.90
30063;DHT22;16889;67.864;24.990;2024-01-07T15:26:10;-11.30;99.90
30063;DHT22;16889;67.864;24.990;2024-01-07T15:30:56;-11.10;99.90
30063;DHT22;16889;67.864;24.990;2024-01-07T15:35:42;-11.00;99.90
30063;DHT22;16889;67.864;24.990;2024-01-07T15:40:28;-11.00;99.90
30063;DHT22;16889;67.864;24.990;2024-01-07T15:45:16;-11.00;99.90
30063;DHT22;16889;67.864;24.990;2024-01-07T15:50:02;-11.10;99.90
30063;DHT22;16889;67.864;24.990;2024-01-07T15:54:48;-11.10;99.90
30063;DHT22;16889;67.864;24.990;2024-01-07T15:59:34;-11.30;99.90
30063;DHT22;16889;67.864;24.990;2024-01-07T16:04:20;-11.70;99.90
30063;DHT22;16889;67.864;24.990;2024-01-07T16:09:06;-11.80;99.90
30063;DHT22;16889;67.864;24.990;2024-01-07T16:13:52;-11.70;99.90
30063;DHT22;16889;67.864;24.990;2024-01-07T16:18:38;-11.70;99.90
30063;DHT22;16889;67.864;24.990;2024-01-07T16:23:24;-11.70;99.90
30063;DHT22;16889;67.864;24.990;2024-01-07T16:28:10;-11.70;99.90
30063;DHT22;16889;67.864;24.990;2024-01-07T16:32:57;-11.80;99.90
30063;DHT22;16889;67.864;24.990;2024-01-07T16:37:43;-11.70;99.90
30063;DHT22;16889;67.864;24.990;2024-01-07T16:42:29;-11.70;99.90
30063;DHT22;16889;67.864;24.990;2024-01-07T16:47:17;-11.60;99.90
30063;DHT22;16889;67.864;24.990;2024-01-07T16:52:03;-11.80;99.90
30063;DHT22;16889;67.864;24.990;2024-01-07T16:56:49;-12.00;99.90
30063;DHT22;16889;67.864;24.990;2024-01-07T17:01:35;-11.90;99.90
30063;DHT22;16889;67.864;24.990;2024-01-07T17:06:21;-12.00;99.90
30063;DHT22;16889;67.864;24.990;2024-01-07T17:11:07;-12.20;99.90
30063;DHT22;16889;67.864;24.990;2024-01-07T17:15:53;-12.20;99.90
30063;DHT22;16889;67.864;24.990;2024-01-07T17:20:39;-12.40;99.90
30063;DHT22;16889;67.864;24.990;2024-01-07T17:25:25;-12.60;99.90
30063;DHT22;16889;67.864;24.990;2024-01-07T17:30:12;-12.80;99.90
30063;DHT22;16889;67.864;24.990;2024-01-07T17:34:58;-12.70;99.90
30063;DHT22;16889;67.864;24.990;2024-01-07T17:39:44;-12.60;99.90
30063;DHT22;16889;67.864;24.990;2024-01-07T17:44:30;-12.70;99.90
30063;DHT22;16889;67.864;24.990;2024-01-07T17:49:16;-12.80;99.90
30063;DHT22;16889;67.864;24.990;2024-01-07T17:54:02;-12.80;99.90
30063;DHT22;16889;67.864;24.990;2024-01-07T17:58:48;-13.00;99.90
30063;DHT22;16889;67.864;24.990;2024-01-07T18:03:35;-13.30;99.90
30063;DHT22;16889;67.864;24.990;2024-01-07T18:08:21;-13.20;99.90
30063;DHT22;16889;67.864;24.990;2024-01-07T18:13:07;-13.10;99.90
30063;DHT22;16889;67.864;24.990;2024-01-07T18:17:55;-13.00;99.90
30063;DHT22;16889;67.864;24.990;2024-01-07T18:22:41;-13.00;99.90
30063;DHT22;16889;67.864;24.990;2024-01-07T18:27:27;-12.90;99.90
30063;DHT22;16889;67.864;24.990;2024-01-07T18:32:13;-12.90;99.90
30063;DHT22;16889;67.864;24.990;2024-01-07T18:36:59;-12.60;99.90
30063;DHT22;16889;67.864;24.990;2024-01-07T18:41:44;-12.40;99.90
30063;DHT22;16889;67.864;24.990;2024-01-07T18:46:31;-12.10;99.90
30063;DHT22;16889;67.864;24.990;2024-01-07T18:51:17;-12.10;99.90
30063;DHT22;16889;67.864;24.990;2024-01-07T18:56:07;-12.20;99.90
30063;DHT22;16889;67.864;24.990;2024-01-07T19:00:53;-12.50;99.90
30063;DHT22;16889;67.864;24.990;2024-01-07T19:05:39;-12.60;99.90
30063;DHT22;16889;67.864;24.990;2024-01-07T19:10:29;-12.50;99.90
30063;DHT22;16889;67.864;24.990;2024-01-07T19:15:15;-12.70;99.90
30063;DHT22;16889;67.864;24.990;2024-01-07T19:20:10;-12.70;99.90
30063;DHT22;16889;67.864;24.990;2024-01-07T19:24:56;-12.90;99.90
30063;DHT22;16889;67.864;24.990;2024-01-07T19:29:42;-13.00;99.90
30063;DHT22;16889;67.864;24.990;2024-01-07T19:34:28;-13.20;99.90
30063;DHT22;16889;67.864;24.990;2024-01-07T19:39:15;-13.10;99.90
30063;DHT22;16889;67.864;24.990;2024-01-07T19:44:01;-13.00;99.90
30063;DHT22;16889;67.864;24.990;2024-01-07T19:48:48;-13.00;99.90
30063;DHT22;16889;67.864;24.990;2024-01-07T19:53:34;-13.30;99.90
30063;DHT22;16889;67.864;24.990;2024-01-07T19:58:19;-13.10;99.90
30063;DHT22;16889;67.864;24.990;2024-01-07T20:03:07;-13.30;99.90
30063;DHT22;16889;67.864;24.990;2024-01-07T20:07:53;-13.50;99.90
30063;DHT22;16889;67.864;24.990;2024-01-07T20:12:39;-13.60;99.90
30063;DHT22;16889;67.864;24.990;2024-01-07T20:17:25;-13.70;99.90
30063;DHT22;16889;67.864;24.990;2024-01-07T20:22:11;-13.80;99.90
30063;DHT22;16889;67.864;24.990;2024-01-07T20:26:58;-13.80;99.90
30063;DHT22;16889;67.864;24.990;2024-01-07T20:31:44;-13.70;99.90
30063;DHT22;16889;67.864;24.990;2024-01-07T20:36:33;-13.50;99.90
30063;DHT22;16889;67.864;24.990;2024-01-07T20:41:19;-13.40;99.90
30063;DHT22;16889;67.864;24.990;2024-01-07T20:46:06;-13.20;99.90
30063;DHT22;16889;67.864;24.990;2024-01-07T20:50:52;-13.10;99.90
30063;DHT22;16889;67.864;24.990;2024-01-07T20:55:38;-13.20;99.90
30063;DHT22;16889;67.864;24.990;2024-01-07T21:00:24;-13.30;99.90
30063;DHT22;16889;67.864;24.990;2024-01-07T21:05:11;-13.20;99.90
30063;DHT22;16889;67.864;24.990;2024-01-07T21:09:57;-13.20;99.90
30063;DHT22;16889;67.864;24.990;2024-01-07T21:14:42;-13.10;99.90
30063;DHT22;16889;67.864;24.990;2024-01-07T21:19:30;-12.90;99.90
30063;DHT22;16889;67.864;24.990;2024-01-07T21:24:16;-12.90;99.90
30063;DHT22;16889;67.864;24.990;2024-01-07T21:29:02;-12.70;99.90
30063;DHT22;16889;67.864;24.990;2024-01-07T21:33:48;-12.60;99.90
30063;DHT22;16889;67.864;24.990;2024-01-07T21:38:34;-12.70;99.90
30063;DHT22;16889;67.864;24.990;2024-01-07T21:43:21;-12.60;99.90
30063;DHT22;16889;67.864;24.990;2024-01-07T21:48:08;-12.50;99.90
30063;DHT22;16889;67.864;24.990;2024-01-07T21:52:55;-12.40;99.90
30063;DHT22;16889;67.864;24.990;2024-01-07T21:57:41;-12.40;99.90
30063;DHT22;16889;67.864;24.990;2024-01-07T22:02:27;-12.30;99.90
30063;DHT22;16889;67.864;24.990;2024-01-07T22:07:13;-12.20;99.90
30063;DHT22;16889;67.864;24.990;2024-01-07T22:11:59;-12.00;99.90
30063;DHT22;16889;67.864;24.990;2024-01-07T22:16:45;-11.70;99.90
30063;DHT22;16889;67.864;24.990;2024-01-07T22:21:32;-11.70;99.90
30063;DHT22;16889;67.864;24.990;2024-01-07T22:26:18;-11.60;99.90
30063;DHT22;16889;67.864;24.990;2024-01-07T22:31:04;-11.60;99.90
30063;DHT22;16889;67.864;24.990;2024-01-07T22:35:50;-11.30;99.90
30063;DHT22;16889;67.864;24.990;2024-01-07T22:40:35;-11.00;99.90
30063;DHT22;16889;67.864;24.990;2024-01-07T22:45:21;-11.00;99.90
30063;DHT22;16889;67.864;24.990;2024-01-07T22:50:08;-11.00;99.90
30063;DHT22;16889;67.864;24.990;2024-01-07T22:54:54;-11.10;99.90
30063;DHT22;16889;67.864;24.990;2024-01-07T22:59:40;-11.20;99.90
30063;DHT22;16889;67.864;24.990;2024-01-07T23:04:26;-11.20;99.90
30063;DHT22;16889;67.864;24.990;2024-01-07T23:09:13;-11.30;99.90
30063;DHT22;16889;67.864;24.990;2024-01-07T23:13:59;-11.70;99.90
30063;DHT22;16889;67.864;24.990;2024-01-07T23:18:45;-11.80;99.90
30063;DHT22;16889;67.864;24.990;2024-01-07T23:23:31;-11.90;99.90
30063;DHT22;16889;67.864;24.990;2024-01-07T23:28:17;-12.00;99.90
30063;DHT22;16889;67.864;24.990;2024-01-07T23:33:04;-12.10;99.90
30063;DHT22;16889;67.864;24.990;2024-01-07T23:37:50;-12.30;99.90
30063;DHT22;16889;67.864;24.990;2024-01-07T23:42:36;-12.50;99.90
30063;DHT22;16889;67.864;24.990;2024-01-07T23:47:22;-12.50;99.90
30063;DHT22;16889;67.864;24.990;2024-01-07T23:52:08;-12.40;99.90
30063;DHT22;16889;67.864;24.990;2024-01-07T23:56:54;-12.20;99.90
